sensor_id;sensor_type;location;lat;lon;timestamp;pressure;altitude;pressure_sealevel;temperature;humidity
48652;BME280;34442;52.362;-1.302;2022-11-30T00:00:05;100980.44;;;5.76;100.00
48652;BME280;34442;52.362;-1.302;2022-11-30T00:02:51;100977.75;;;5.76;100.00
48652;BME280;34442;52.362;-1.302;2022-11-30T00:05:38;100970.44;;;5.78;100.00
48652;BME280;34442;52.362;-1.302;2022-11-30T00:08:25;100976.44;;;5.80;100.00
48652;BME280;34442;52.362;-1.302;2022-11-30T00:11:16;100970.13;;;5.81;100.00
48652;BME280;34442;52.362;-1.302;2022-11-30T00:14:02;100974.97;;;5.85;100.00
48652;BME280;34442;52.362;-1.302;2022-11-30T00:16:48;100972.13;;;5.87;100.00
48652;BME280;34442;52.362;-1.302;2022-11-30T00:19:33;100976.59;;;5.78;100.00
48652;BME280;34442;52.362;-1.302;2022-11-30T00:22:19;100977.63;;;5.77;100.00
48652;BME280;34442;52.362;-1.302;2022-11-30T00:25:05;100981.16;;;5.86;100.00
48652;BME280;34442;52.362;-1.302;2022-11-30T00:27:51;100984.97;;;5.83;100.00
48652;BME280;34442;52.362;-1.302;2022-11-30T00:30:37;100978.28;;;5.79;100.00
48652;BME280;34442;52.362;-1.302;2022-11-30T00:33:23;100981.44;;;5.75;100.00
48652;BME280;34442;52.362;-1.302;2022-11-30T00:36:12;100972.06;;;5.70;100.00
48652;BME280;34442;52.362;-1.302;2022-11-30T00:38:58;100970.91;;;5.65;100.00
48652;BME280;34442;52.362;-1.302;2022-11-30T00:41:44;100972.72;;;5.64;100.00
48652;BME280;34442;52.362;-1.302;2022-11-30T00:44:30;100979.34;;;5.52;100.00
48652;BME280;34442;52.362;-1.302;2022-11-30T00:47:16;100965.00;;;5.53;100.00
48652;BME280;34442;52.362;-1.302;2022-11-30T00:50:03;100966.53;;;5.56;100.00
48652;BME280;34442;52.362;-1.302;2022-11-30T00:52:49;100957.69;;;5.63;100.00
48652;BME280;34442;52.362;-1.302;2022-11-30T00:55:34;100955.91;;;5.64;100.00
48652;BME280;34442;52.362;-1.302;2022-11-30T00:58:20;100966.56;;;5.64;100.00
48652;BME280;34442;52.362;-1.302;2022-11-30T01:01:07;100956.72;;;5.64;100.00
48652;BME280;34442;52.362;-1.302;2022-11-30T01:03:53;100953.06;;;5.65;100.00
48652;BME280;34442;52.362;-1.302;2022-11-30T01:06:38;100950.69;;;5.62;100.00
48652;BME280;34442;52.362;-1.302;2022-11-30T01:09:24;100958.22;;;5.67;100.00
48652;BME280;34442;52.362;-1.302;2022-11-30T01:12:10;100952.88;;;5.67;100.00
48652;BME280;34442;52.362;-1.302;2022-11-30T01:14:55;100950.75;;;5.70;100.00
48652;BME280;34442;52.362;-1.302;2022-11-30T01:17:41;100947.06;;;5.71;100.00
48652;BME280;34442;52.362;-1.302;2022-11-30T01:20:27;100953.75;;;5.76;100.00
48652;BME280;34442;52.362;-1.302;2022-11-30T01:23:12;100955.06;;;5.71;100.00
48652;BME280;34442;52.362;-1.302;2022-11-30T01:25:58;100956.97;;;5.87;100.00
48652;BME280;34442;52.362;-1.302;2022-11-30T01:28:44;100960.00;;;5.92;100.00
48652;BME280;34442;52.362;-1.302;2022-11-30T01:31:33;100956.19;;;5.95;100.00
48652;BME280;34442;52.362;-1.302;2022-11-30T01:34:21;100956.63;;;5.82;100.00
48652;BME280;34442;52.362;-1.302;2022-11-30T01:37:06;100955.31;;;5.86;100.00
48652;BME280;34442;52.362;-1.302;2022-11-30T01:39:52;100965.59;;;5.73;100.00
48652;BME280;34442;52.362;-1.302;2022-11-30T01:42:44;100963.59;;;5.75;100.00
48652;BME280;34442;52.362;-1.302;2022-11-30T01:45:33;100967.25;;;5.74;100.00
48652;BME280;34442;52.362;-1.302;2022-11-30T01:48:19;100958.94;;;5.77;100.00
48652;BME280;34442;52.362;-1.302;2022-11-30T01:51:04;100957.09;;;5.78;100.00
48652;BME280;34442;52.362;-1.302;2022-11-30T01:53:50;100963.28;;;5.78;100.00
48652;BME280;34442;52.362;-1.302;2022-11-30T01:56:42;100968.97;;;5.83;100.00
48652;BME280;34442;52.362;-1.302;2022-11-30T01:59:30;100965.78;;;5.80;100.00
48652;BME280;34442;52.362;-1.302;2022-11-30T02:02:19;100965.78;;;5.80;100.00
48652;BME280;34442;52.362;-1.302;2022-11-30T02:05:07;100957.94;;;5.78;100.00
48652;BME280;34442;52.362;-1.302;2022-11-30T02:07:54;100956.28;;;5.77;100.00
48652;BME280;34442;52.362;-1.302;2022-11-30T02:10:48;100961.28;;;5.80;100.00
48652;BME280;34442;52.362;-1.302;2022-11-30T02:16:59;100951.47;;;5.81;100.00
48652;BME280;34442;52.362;-1.302;2022-11-30T02:20:26;100948.94;;;5.79;100.00
48652;BME280;34442;52.362;-1.302;2022-11-30T02:32:24;100953.59;;;5.77;100.00
48652;BME280;34442;52.362;-1.302;2022-11-30T02:35:13;100950.09;;;5.77;100.00
48652;BME280;34442;52.362;-1.302;2022-11-30T02:38:02;100964.94;;;5.79;100.00
48652;BME280;34442;52.362;-1.302;2022-11-30T02:40:49;100960.59;;;5.78;100.00
48652;BME280;34442;52.362;-1.302;2022-11-30T02:43:35;100961.41;;;5.70;100.00
48652;BME280;34442;52.362;-1.302;2022-11-30T02:46:37;100966.25;;;5.75;100.00
48652;BME280;34442;52.362;-1.302;2022-11-30T02:49:35;100966.94;;;5.77;100.00
48652;BME280;34442;52.362;-1.302;2022-11-30T02:52:24;100969.44;;;5.79;100.00
48652;BME280;34442;52.362;-1.302;2022-11-30T02:55:14;100968.44;;;5.80;100.00
48652;BME280;34442;52.362;-1.302;2022-11-30T02:58:01;100969.31;;;5.80;100.00
48652;BME280;34442;52.362;-1.302;2022-11-30T03:00:47;100971.09;;;5.80;100.00
48652;BME280;34442;52.362;-1.302;2022-11-30T03:03:32;100969.88;;;5.66;100.00
48652;BME280;34442;52.362;-1.302;2022-11-30T03:06:18;100967.94;;;5.76;100.00
48652;BME280;34442;52.362;-1.302;2022-11-30T03:09:04;100967.59;;;5.79;100.00
48652;BME280;34442;52.362;-1.302;2022-11-30T03:11:49;100967.25;;;5.74;100.00
48652;BME280;34442;52.362;-1.302;2022-11-30T03:14:35;100980.94;;;5.79;100.00
48652;BME280;34442;52.362;-1.302;2022-11-30T03:17:21;100976.78;;;5.77;100.00
48652;BME280;34442;52.362;-1.302;2022-11-30T03:20:07;100979.09;;;5.80;100.00
48652;BME280;34442;52.362;-1.302;2022-11-30T03:22:53;100975.78;;;5.78;100.00
48652;BME280;34442;52.362;-1.302;2022-11-30T03:25:39;100971.09;;;5.80;100.00
48652;BME280;34442;52.362;-1.302;2022-11-30T03:28:24;100972.94;;;5.79;100.00
48652;BME280;34442;52.362;-1.302;2022-11-30T03:31:12;100972.81;;;5.81;100.00
48652;BME280;34442;52.362;-1.302;2022-11-30T03:33:58;100978.63;;;5.76;100.00
48652;BME280;34442;52.362;-1.302;2022-11-30T03:36:43;100970.41;;;5.69;100.00
48652;BME280;34442;52.362;-1.302;2022-11-30T03:39:29;100969.63;;;5.77;100.00
48652;BME280;34442;52.362;-1.302;2022-11-30T03:42:15;100970.25;;;5.71;100.00
48652;BME280;34442;52.362;-1.302;2022-11-30T03:45:00;100974.94;;;5.77;100.00
48652;BME280;34442;52.362;-1.302;2022-11-30T03:47:46;100979.81;;;5.82;100.00
48652;BME280;34442;52.362;-1.302;2022-11-30T03:50:32;100971.78;;;5.82;100.00
48652;BME280;34442;52.362;-1.302;2022-11-30T03:53:19;100983.66;;;5.87;100.00
48652;BME280;34442;52.362;-1.302;2022-11-30T03:56:07;100988.97;;;5.87;100.00
48652;BME280;34442;52.362;-1.302;2022-11-30T03:58:53;100975.50;;;5.89;100.00
48652;BME280;34442;52.362;-1.302;2022-11-30T04:01:39;100978.81;;;5.91;100.00
48652;BME280;34442;52.362;-1.302;2022-11-30T04:04:27;100986.16;;;5.89;100.00
48652;BME280;34442;52.362;-1.302;2022-11-30T04:07:13;100983.50;;;5.89;100.00
48652;BME280;34442;52.362;-1.302;2022-11-30T04:09:59;100984.13;;;5.83;100.00
48652;BME280;34442;52.362;-1.302;2022-11-30T04:12:44;100983.66;;;5.87;100.00
48652;BME280;34442;52.362;-1.302;2022-11-30T04:15:30;100989.63;;;5.81;100.00
48652;BME280;34442;52.362;-1.302;2022-11-30T04:18:17;100991.31;;;5.82;100.00
48652;BME280;34442;52.362;-1.302;2022-11-30T04:21:04;100993.47;;;5.87;100.00
48652;BME280;34442;52.362;-1.302;2022-11-30T04:23:51;100995.84;;;5.90;100.00
48652;BME280;34442;52.362;-1.302;2022-11-30T04:26:36;101000.34;;;5.89;100.00
48652;BME280;34442;52.362;-1.302;2022-11-30T04:29:22;101000.91;;;5.93;100.00
48652;BME280;34442;52.362;-1.302;2022-11-30T04:32:08;100998.22;;;5.93;100.00
48652;BME280;34442;52.362;-1.302;2022-11-30T04:34:54;100995.38;;;5.94;100.00
48652;BME280;34442;52.362;-1.302;2022-11-30T04:37:40;100996.91;;;5.97;100.00
48652;BME280;34442;52.362;-1.302;2022-11-30T04:40:25;101007.22;;;6.00;100.00
48652;BME280;34442;52.362;-1.302;2022-11-30T04:43:12;101007.41;;;5.99;100.00
48652;BME280;34442;52.362;-1.302;2022-11-30T04:45:57;101015.59;;;5.97;100.00
48652;BME280;34442;52.362;-1.302;2022-11-30T04:48:43;101011.75;;;6.00;100.00
48652;BME280;34442;52.362;-1.302;2022-11-30T04:51:29;101018.44;;;6.04;100.00
48652;BME280;34442;52.362;-1.302;2022-11-30T04:54:14;101017.06;;;6.00;100.00
48652;BME280;34442;52.362;-1.302;2022-11-30T04:57:00;101022.41;;;6.00;100.00
48652;BME280;34442;52.362;-1.302;2022-11-30T04:59:46;101025.59;;;6.03;100.00
48652;BME280;34442;52.362;-1.302;2022-11-30T05:02:31;101028.28;;;6.03;100.00
48652;BME280;34442;52.362;-1.302;2022-11-30T05:05:17;101028.97;;;6.05;100.00
48652;BME280;34442;52.362;-1.302;2022-11-30T05:08:03;101023.97;;;6.10;100.00
48652;BME280;34442;52.362;-1.302;2022-11-30T05:10:52;101024.97;;;6.09;100.00
48652;BME280;34442;52.362;-1.302;2022-11-30T05:13:38;101020.59;;;6.08;100.00
48652;BME280;34442;52.362;-1.302;2022-11-30T05:16:24;101020.78;;;6.07;100.00
48652;BME280;34442;52.362;-1.302;2022-11-30T05:19:10;101025.28;;;6.06;100.00
48652;BME280;34442;52.362;-1.302;2022-11-30T05:21:55;101028.44;;;6.02;100.00
48652;BME280;34442;52.362;-1.302;2022-11-30T05:24:41;101037.13;;;6.04;100.00
48652;BME280;34442;52.362;-1.302;2022-11-30T05:27:27;101032.59;;;6.04;100.00
48652;BME280;34442;52.362;-1.302;2022-11-30T05:30:13;101030.75;;;6.05;100.00
48652;BME280;34442;52.362;-1.302;2022-11-30T05:32:58;101031.47;;;6.07;100.00
48652;BME280;34442;52.362;-1.302;2022-11-30T05:35:44;101038.13;;;6.03;100.00
48652;BME280;34442;52.362;-1.302;2022-11-30T05:38:30;101036.97;;;6.05;100.00
48652;BME280;34442;52.362;-1.302;2022-11-30T05:41:15;101033.28;;;6.06;100.00
48652;BME280;34442;52.362;-1.302;2022-11-30T05:44:01;101040.13;;;6.09;100.00
48652;BME280;34442;52.362;-1.302;2022-11-30T05:46:47;101043.47;;;6.11;100.00
48652;BME280;34442;52.362;-1.302;2022-11-30T05:49:33;101045.97;;;6.12;100.00
48652;BME280;34442;52.362;-1.302;2022-11-30T05:52:18;101046.81;;;6.13;100.00
48652;BME280;34442;52.362;-1.302;2022-11-30T05:55:04;101047.19;;;6.18;100.00
48652;BME280;34442;52.362;-1.302;2022-11-30T05:57:50;101054.50;;;6.16;100.00
48652;BME280;34442;52.362;-1.302;2022-11-30T06:00:36;101059.75;;;6.34;100.00
48652;BME280;34442;52.362;-1.302;2022-11-30T06:03:22;101055.22;;;6.26;100.00
48652;BME280;34442;52.362;-1.302;2022-11-30T06:06:07;101058.19;;;6.15;100.00
48652;BME280;34442;52.362;-1.302;2022-11-30T06:08:53;101067.03;;;6.15;100.00
48652;BME280;34442;52.362;-1.302;2022-11-30T06:11:39;101059.00;;;6.15;100.00
48652;BME280;34442;52.362;-1.302;2022-11-30T06:14:24;101055.81;;;6.12;100.00
48652;BME280;34442;52.362;-1.302;2022-11-30T06:17:10;101062.00;;;6.12;100.00
48652;BME280;34442;52.362;-1.302;2022-11-30T06:19:56;101075.56;;;6.19;100.00
48652;BME280;34442;52.362;-1.302;2022-11-30T06:22:44;101069.06;;;6.21;100.00
48652;BME280;34442;52.362;-1.302;2022-11-30T06:25:30;101073.41;;;6.22;100.00
48652;BME280;34442;52.362;-1.302;2022-11-30T06:28:16;101071.38;;;6.25;100.00
48652;BME280;34442;52.362;-1.302;2022-11-30T06:31:03;101079.41;;;6.25;100.00
48652;BME280;34442;52.362;-1.302;2022-11-30T06:33:49;101075.75;;;6.26;100.00
48652;BME280;34442;52.362;-1.302;2022-11-30T06:36:35;101078.91;;;6.29;100.00
48652;BME280;34442;52.362;-1.302;2022-11-30T06:39:21;101071.91;;;6.28;100.00
48652;BME280;34442;52.362;-1.302;2022-11-30T06:42:07;101075.25;;;6.30;100.00
48652;BME280;34442;52.362;-1.302;2022-11-30T06:44:52;101062.56;;;6.32;100.00
48652;BME280;34442;52.362;-1.302;2022-11-30T06:47:38;101076.09;;;6.31;100.00
48652;BME280;34442;52.362;-1.302;2022-11-30T06:50:24;101075.25;;;6.30;100.00
48652;BME280;34442;52.362;-1.302;2022-11-30T06:53:10;101082.09;;;6.33;100.00
48652;BME280;34442;52.362;-1.302;2022-11-30T06:55:55;101086.28;;;6.35;100.00
48652;BME280;34442;52.362;-1.302;2022-11-30T06:58:41;101088.13;;;6.35;100.00
48652;BME280;34442;52.362;-1.302;2022-11-30T07:01:27;101070.44;;;6.34;100.00
48652;BME280;34442;52.362;-1.302;2022-11-30T07:04:13;101069.09;;;6.30;100.00
48652;BME280;34442;52.362;-1.302;2022-11-30T07:06:59;101068.91;;;6.31;100.00
48652;BME280;34442;52.362;-1.302;2022-11-30T07:09:45;101066.91;;;6.33;100.00
48652;BME280;34442;52.362;-1.302;2022-11-30T07:12:33;101077.75;;;6.32;100.00
48652;BME280;34442;52.362;-1.302;2022-11-30T07:15:19;101080.91;;;6.27;100.00
48652;BME280;34442;52.362;-1.302;2022-11-30T07:18:05;101087.28;;;6.26;100.00
48652;BME280;34442;52.362;-1.302;2022-11-30T07:20:50;101086.09;;;6.29;100.00
48652;BME280;34442;52.362;-1.302;2022-11-30T07:23:38;101084.44;;;6.36;100.00
48652;BME280;34442;52.362;-1.302;2022-11-30T07:26:43;101088.28;;;6.33;100.00
48652;BME280;34442;52.362;-1.302;2022-11-30T07:29:28;101090.63;;;6.36;100.00
48652;BME280;34442;52.362;-1.302;2022-11-30T07:32:14;101088.44;;;6.32;100.00
48652;BME280;34442;52.362;-1.302;2022-11-30T07:35:00;101095.75;;;6.21;100.00
48652;BME280;34442;52.362;-1.302;2022-11-30T07:37:46;101098.25;;;6.23;100.00
48652;BME280;34442;52.362;-1.302;2022-11-30T07:40:31;101108.81;;;6.33;100.00
48652;BME280;34442;52.362;-1.302;2022-11-30T07:43:17;101110.00;;;6.38;100.00
48652;BME280;34442;52.362;-1.302;2022-11-30T07:46:03;101114.09;;;6.59;100.00
48652;BME280;34442;52.362;-1.302;2022-11-30T07:48:49;101113.41;;;6.65;100.00
48652;BME280;34442;52.362;-1.302;2022-11-30T07:51:36;101117.13;;;6.72;100.00
48652;BME280;34442;52.362;-1.302;2022-11-30T07:54:22;101116.88;;;6.49;100.00
48652;BME280;34442;52.362;-1.302;2022-11-30T07:57:07;101127.72;;;6.47;100.00
48652;BME280;34442;52.362;-1.302;2022-11-30T07:59:53;101129.53;;;6.39;100.00
48652;BME280;34442;52.362;-1.302;2022-11-30T08:02:39;101124.03;;;6.40;100.00
48652;BME280;34442;52.362;-1.302;2022-11-30T08:05:25;101129.72;;;6.45;100.00
48652;BME280;34442;52.362;-1.302;2022-11-30T08:08:10;101135.56;;;6.49;100.00
48652;BME280;34442;52.362;-1.302;2022-11-30T08:10:56;101133.25;;;6.54;100.00
48652;BME280;34442;52.362;-1.302;2022-11-30T08:13:42;101134.25;;;6.53;100.00
48652;BME280;34442;52.362;-1.302;2022-11-30T08:16:30;101141.94;;;6.56;100.00
48652;BME280;34442;52.362;-1.302;2022-11-30T08:19:18;101145.75;;;6.54;100.00
48652;BME280;34442;52.362;-1.302;2022-11-30T08:22:04;101146.28;;;6.57;100.00
48652;BME280;34442;52.362;-1.302;2022-11-30T08:24:50;101144.44;;;6.58;100.00
48652;BME280;34442;52.362;-1.302;2022-11-30T08:27:36;101139.94;;;6.58;100.00
48652;BME280;34442;52.362;-1.302;2022-11-30T08:30:21;101148.63;;;6.60;100.00
48652;BME280;34442;52.362;-1.302;2022-11-30T08:33:07;101146.63;;;6.62;100.00
48652;BME280;34442;52.362;-1.302;2022-11-30T08:35:53;101159.81;;;6.56;100.00
48652;BME280;34442;52.362;-1.302;2022-11-30T08:38:41;101153.63;;;6.55;100.00
48652;BME280;34442;52.362;-1.302;2022-11-30T08:41:27;101155.13;;;6.58;100.00
48652;BME280;34442;52.362;-1.302;2022-11-30T08:44:13;101163.97;;;6.58;100.00
48652;BME280;34442;52.362;-1.302;2022-11-30T08:46:59;101158.63;;;6.58;100.00
48652;BME280;34442;52.362;-1.302;2022-11-30T08:49:44;101165.84;;;6.66;100.00
48652;BME280;34442;52.362;-1.302;2022-11-30T08:52:30;101166.69;;;6.66;100.00
48652;BME280;34442;52.362;-1.302;2022-11-30T08:55:16;101163.00;;;6.59;100.00
48652;BME280;34442;52.362;-1.302;2022-11-30T08:58:02;101168.16;;;6.61;100.00
48652;BME280;34442;52.362;-1.302;2022-11-30T09:00:47;101162.50;;;6.64;100.00
48652;BME280;34442;52.362;-1.302;2022-11-30T09:03:33;101169.69;;;6.63;100.00
48652;BME280;34442;52.362;-1.302;2022-11-30T09:06:22;101171.06;;;6.67;100.00
48652;BME280;34442;52.362;-1.302;2022-11-30T09:09:08;101164.56;;;6.78;100.00
48652;BME280;34442;52.362;-1.302;2022-11-30T09:11:54;101171.25;;;6.82;100.00
48652;BME280;34442;52.362;-1.302;2022-11-30T09:14:39;101167.09;;;6.88;100.00
48652;BME280;34442;52.362;-1.302;2022-11-30T09:17:25;101167.97;;;6.96;100.00
48652;BME280;34442;52.362;-1.302;2022-11-30T09:20:11;101175.13;;;6.88;100.00
48652;BME280;34442;52.362;-1.302;2022-11-30T09:22:58;101169.25;;;6.84;100.00
48652;BME280;34442;52.362;-1.302;2022-11-30T09:25:43;101169.63;;;6.97;100.00
48652;BME280;34442;52.362;-1.302;2022-11-30T09:28:29;101175.47;;;7.01;100.00
48652;BME280;34442;52.362;-1.302;2022-11-30T09:31:17;101174.78;;;6.99;100.00
48652;BME280;34442;52.362;-1.302;2022-11-30T09:34:03;101171.63;;;6.95;100.00
48652;BME280;34442;52.362;-1.302;2022-11-30T09:36:49;101171.97;;;7.01;100.00
48652;BME280;34442;52.362;-1.302;2022-11-30T09:39:35;101173.16;;;7.06;100.00
48652;BME280;34442;52.362;-1.302;2022-11-30T09:42:27;101176.16;;;7.11;100.00
48652;BME280;34442;52.362;-1.302;2022-11-30T09:45:25;101175.19;;;7.20;100.00
48652;BME280;34442;52.362;-1.302;2022-11-30T09:51:05;101172.53;;;7.29;100.00
48652;BME280;34442;52.362;-1.302;2022-11-30T09:53:56;101178.22;;;7.34;100.00
48652;BME280;34442;52.362;-1.302;2022-11-30T09:56:44;101176.69;;;7.39;100.00
48652;BME280;34442;52.362;-1.302;2022-11-30T09:59:32;101182.88;;;7.40;100.00
48652;BME280;34442;52.362;-1.302;2022-11-30T10:02:25;101183.91;;;7.47;100.00
48652;BME280;34442;52.362;-1.302;2022-11-30T10:08:11;101175.69;;;7.49;100.00
48652;BME280;34442;52.362;-1.302;2022-11-30T10:17:38;101172.19;;;7.40;100.00
48652;BME280;34442;52.362;-1.302;2022-11-30T10:26:35;101179.56;;;7.46;100.00
48652;BME280;34442;52.362;-1.302;2022-11-30T10:29:39;101172.88;;;7.50;100.00
48652;BME280;34442;52.362;-1.302;2022-11-30T10:32:36;101173.53;;;7.52;100.00
48652;BME280;34442;52.362;-1.302;2022-11-30T10:35:39;101183.25;;;7.61;100.00
48652;BME280;34442;52.362;-1.302;2022-11-30T10:38:32;101186.75;;;7.45;100.00
48652;BME280;34442;52.362;-1.302;2022-11-30T10:41:27;101178.88;;;7.44;100.00
48652;BME280;34442;52.362;-1.302;2022-11-30T10:44:18;101193.44;;;7.50;100.00
48652;BME280;34442;52.362;-1.302;2022-11-30T10:47:18;101202.13;;;7.60;100.00
48652;BME280;34442;52.362;-1.302;2022-11-30T10:50:05;101190.59;;;7.67;100.00
48652;BME280;34442;52.362;-1.302;2022-11-30T10:52:53;101191.75;;;7.73;100.00
48652;BME280;34442;52.362;-1.302;2022-11-30T10:56:08;101197.59;;;7.93;100.00
48652;BME280;34442;52.362;-1.302;2022-11-30T10:58:59;101195.75;;;7.93;100.00
48652;BME280;34442;52.362;-1.302;2022-11-30T11:01:47;101204.47;;;7.63;100.00
48652;BME280;34442;52.362;-1.302;2022-11-30T11:04:33;101196.63;;;7.69;100.00
48652;BME280;34442;52.362;-1.302;2022-11-30T11:07:19;101205.50;;;7.70;100.00
48652;BME280;34442;52.362;-1.302;2022-11-30T11:10:13;101197.59;;;7.68;100.00
48652;BME280;34442;52.362;-1.302;2022-11-30T11:13:00;101206.47;;;7.69;100.00
48652;BME280;34442;52.362;-1.302;2022-11-30T11:15:59;101209.84;;;7.71;100.00
48652;BME280;34442;52.362;-1.302;2022-11-30T11:18:54;101216.19;;;7.70;100.00
48652;BME280;34442;52.362;-1.302;2022-11-30T11:21:45;101226.06;;;7.69;100.00
48652;BME280;34442;52.362;-1.302;2022-11-30T11:24:33;101228.88;;;7.68;100.00
48652;BME280;34442;52.362;-1.302;2022-11-30T11:27:24;101228.88;;;7.68;100.00
48652;BME280;34442;52.362;-1.302;2022-11-30T11:30:17;101226.22;;;7.68;100.00
48652;BME280;34442;52.362;-1.302;2022-11-30T11:36:27;101234.41;;;7.66;100.00
48652;BME280;34442;52.362;-1.302;2022-11-30T11:39:24;101233.91;;;7.79;100.00
48652;BME280;34442;52.362;-1.302;2022-11-30T11:42:19;101228.88;;;7.92;100.00
48652;BME280;34442;52.362;-1.302;2022-11-30T11:45:18;101219.00;;;7.93;100.00
48652;BME280;34442;52.362;-1.302;2022-11-30T11:48:08;101225.22;;;7.77;100.00
48652;BME280;34442;52.362;-1.302;2022-11-30T11:51:11;101220.03;;;7.92;100.00
48652;BME280;34442;52.362;-1.302;2022-11-30T11:54:03;101226.91;;;7.70;100.00
48652;BME280;34442;52.362;-1.302;2022-11-30T11:56:52;101228.88;;;7.68;100.00
48652;BME280;34442;52.362;-1.302;2022-11-30T11:59:44;101228.91;;;7.76;100.00
48652;BME280;34442;52.362;-1.302;2022-11-30T12:05:41;101217.03;;;7.95;100.00
48652;BME280;34442;52.362;-1.302;2022-11-30T12:08:56;101224.03;;;8.04;100.00
48652;BME280;34442;52.362;-1.302;2022-11-30T12:11:46;101227.88;;;8.10;100.00
48652;BME280;34442;52.362;-1.302;2022-11-30T12:14:33;101227.72;;;8.03;100.00
48652;BME280;34442;52.362;-1.302;2022-11-30T12:20:39;101234.06;;;8.10;100.00
48652;BME280;34442;52.362;-1.302;2022-11-30T12:26:39;101240.72;;;8.39;100.00
48652;BME280;34442;52.362;-1.302;2022-11-30T12:32:28;101237.91;;;8.40;100.00
48652;BME280;34442;52.362;-1.302;2022-11-30T12:41:35;101239.91;;;8.06;100.00
48652;BME280;34442;52.362;-1.302;2022-11-30T12:44:48;101247.13;;;7.97;100.00
48652;BME280;34442;52.362;-1.302;2022-11-30T12:47:48;101235.25;;;7.91;100.00
48652;BME280;34442;52.362;-1.302;2022-11-30T12:54:08;101242.97;;;7.86;100.00
48652;BME280;34442;52.362;-1.302;2022-11-30T12:57:12;101243.09;;;7.93;100.00
48652;BME280;34442;52.362;-1.302;2022-11-30T13:00:42;101233.75;;;7.97;100.00
48652;BME280;34442;52.362;-1.302;2022-11-30T13:06:33;101254.31;;;7.96;100.00
48652;BME280;34442;52.362;-1.302;2022-11-30T13:09:29;101253.31;;;7.97;100.00
48652;BME280;34442;52.362;-1.302;2022-11-30T13:12:26;101265.53;;;8.00;100.00
48652;BME280;34442;52.362;-1.302;2022-11-30T13:15:26;101255.66;;;8.01;100.00
48652;BME280;34442;52.362;-1.302;2022-11-30T13:18:19;101260.00;;;7.93;100.00
48652;BME280;34442;52.362;-1.302;2022-11-30T13:24:19;101262.69;;;7.93;100.00
48652;BME280;34442;52.362;-1.302;2022-11-30T13:27:14;101256.16;;;7.96;100.00
48652;BME280;34442;52.362;-1.302;2022-11-30T13:30:33;101262.34;;;7.96;100.00
48652;BME280;34442;52.362;-1.302;2022-11-30T13:36:34;101256.00;;;7.97;100.00
48652;BME280;34442;52.362;-1.302;2022-11-30T13:39:23;101260.00;;;7.93;100.00
48652;BME280;34442;52.362;-1.302;2022-11-30T13:48:28;101263.50;;;8.02;100.00
48652;BME280;34442;52.362;-1.302;2022-11-30T13:51:36;101269.22;;;7.91;100.00
48652;BME280;34442;52.362;-1.302;2022-11-30T14:09:55;101264.31;;;7.37;100.00
48652;BME280;34442;52.362;-1.302;2022-11-30T14:12:46;101270.31;;;7.31;100.00
48652;BME280;34442;52.362;-1.302;2022-11-30T14:18:37;101269.78;;;7.28;100.00
48652;BME280;34442;52.362;-1.302;2022-11-30T14:24:18;101276.94;;;7.19;100.00
48652;BME280;34442;52.362;-1.302;2022-11-30T14:27:05;101282.78;;;7.14;100.00
48652;BME280;34442;52.362;-1.302;2022-11-30T14:29:55;101273.94;;;7.14;100.00
48652;BME280;34442;52.362;-1.302;2022-11-30T14:32:48;101270.09;;;7.08;100.00
48652;BME280;34442;52.362;-1.302;2022-11-30T14:35:36;101274.09;;;7.12;100.00
48652;BME280;34442;52.362;-1.302;2022-11-30T14:38:26;101273.28;;;7.12;100.00
48652;BME280;34442;52.362;-1.302;2022-11-30T14:41:24;101285.13;;;7.09;100.00
48652;BME280;34442;52.362;-1.302;2022-11-30T14:44:13;101275.75;;;7.05;100.00
48652;BME280;34442;52.362;-1.302;2022-11-30T14:47:22;101268.69;;;6.96;100.00
48652;BME280;34442;52.362;-1.302;2022-11-30T14:50:20;101275.19;;;6.93;100.00
48652;BME280;34442;52.362;-1.302;2022-11-30T14:56:38;101273.66;;;7.25;100.00
48652;BME280;34442;52.362;-1.302;2022-11-30T14:59:40;101275.94;;;7.20;100.00
48652;BME280;34442;52.362;-1.302;2022-11-30T15:02:31;101278.66;;;7.28;100.00
48652;BME280;34442;52.362;-1.302;2022-11-30T15:05:23;101280.50;;;7.36;100.00
48652;BME280;34442;52.362;-1.302;2022-11-30T15:08:14;101285.69;;;7.29;100.00
48652;BME280;34442;52.362;-1.302;2022-11-30T15:11:06;101284.66;;;7.22;100.00
48652;BME280;34442;52.362;-1.302;2022-11-30T15:13:55;101282.66;;;7.24;100.00
48652;BME280;34442;52.362;-1.302;2022-11-30T15:16:49;101284.66;;;7.22;100.00
48652;BME280;34442;52.362;-1.302;2022-11-30T15:19:37;101283.31;;;7.18;100.00
48652;BME280;34442;52.362;-1.302;2022-11-30T15:22:23;101275.94;;;7.20;100.00
48652;BME280;34442;52.362;-1.302;2022-11-30T15:25:12;101276.47;;;7.24;100.00
48652;BME280;34442;52.362;-1.302;2022-11-30T15:27:58;101268.63;;;7.22;100.00
48652;BME280;34442;52.362;-1.302;2022-11-30T15:30:45;101270.94;;;7.17;100.00
48652;BME280;34442;52.362;-1.302;2022-11-30T15:33:39;101279.97;;;7.16;100.00
48652;BME280;34442;52.362;-1.302;2022-11-30T15:36:35;101275.78;;;7.13;100.00
48652;BME280;34442;52.362;-1.302;2022-11-30T15:39:24;101271.06;;;7.07;100.00
48652;BME280;34442;52.362;-1.302;2022-11-30T15:42:19;101276.59;;;7.06;100.00
48652;BME280;34442;52.362;-1.302;2022-11-30T15:45:21;101273.06;;;7.05;100.00
48652;BME280;34442;52.362;-1.302;2022-11-30T15:48:26;101286.63;;;7.04;100.00
48652;BME280;34442;52.362;-1.302;2022-11-30T15:51:22;101283.78;;;7.05;100.00
48652;BME280;34442;52.362;-1.302;2022-11-30T15:54:08;101286.44;;;7.05;100.00
48652;BME280;34442;52.362;-1.302;2022-11-30T15:56:56;101285.75;;;7.03;100.00
48652;BME280;34442;52.362;-1.302;2022-11-30T15:59:42;101285.59;;;7.05;100.00
48652;BME280;34442;52.362;-1.302;2022-11-30T16:02:33;101287.78;;;7.09;100.00
48652;BME280;34442;52.362;-1.302;2022-11-30T16:05:21;101287.28;;;7.06;100.00
48652;BME280;34442;52.362;-1.302;2022-11-30T16:08:15;101287.44;;;7.04;100.00